Alban, Wisconsin
Current Conditions -  °F | °C
As of 3:35 PM on Monday 24 Nov 2014 (Local Time) from KSTE Reporting Station
Unknown Precip Unknown Precip  
Wind Chill: 20°   Ceiling: 600
Heat Index: 29°   Visibility: 0.5mi
Dew Point: 28°   Wind: 10mph
Humidity: 97%   Direction: 270°W
Pressure: 29.31"   Gusts: 17mph
Location:  44.6794°N, 89.3392°W
Report Text: KSTE 242135Z AUTO 27009G15KT 1/2SM UP OVC006 M02/M02 A2931 RMK AO2 T10171021
Loading
Personal Weather Stations






























Interactive Weather Map New forecast layout! Learn more

10-Day Weather Forecast

Advertisements
Track Severe Weather on mobile